createdAt,value
2019-05-09T00:00:15.719Z,73
2019-05-09T00:05:25.733Z,72
2019-05-09T00:10:44.755Z,73
2019-05-09T00:11:44.176Z,73
2019-05-09T00:15:40.595Z,72
2019-05-09T00:20:45.656Z,72
2019-05-09T00:25:50.609Z,72
2019-05-09T00:30:55.657Z,74
2019-05-09T00:36:05.620Z,75
2019-05-09T00:41:15.633Z,76
2019-05-09T00:46:20.703Z,76
2019-05-09T00:51:25.634Z,77
2019-05-09T00:56:32.619Z,76
2019-05-09T01:01:35.629Z,76
2019-05-09T01:06:45.540Z,75
2019-05-09T01:11:55.621Z,75
2019-05-09T01:17:00.604Z,74
2019-05-09T01:22:05.590Z,74
2019-05-09T01:27:10.666Z,73
2019-05-09T01:32:15.588Z,72
2019-05-09T01:37:25.505Z,72
2019-05-09T01:42:35.758Z,73
2019-05-09T01:47:40.495Z,72
2019-05-09T01:57:48.266Z,72
2019-05-09T02:02:50.917Z,72
2019-05-09T02:07:55.922Z,71
2019-05-09T02:13:05.869Z,71
2019-05-09T02:18:15.888Z,71
2019-05-09T02:23:20.871Z,72
2019-05-09T02:28:26.012Z,71
2019-05-09T02:33:33.857Z,71
2019-05-09T02:38:39.386Z,72
2019-05-09T02:43:40.910Z,71
2019-05-09T02:48:50.848Z,72
2019-05-09T02:54:00.863Z,72
2019-05-09T02:59:09.138Z,72
2019-05-09T03:04:10.828Z,73
2019-05-09T03:09:19.367Z,73
2019-05-09T03:14:20.842Z,72
2019-05-09T03:19:30.858Z,73
2019-05-09T03:24:40.837Z,73
2019-05-09T03:29:49.211Z,73
2019-05-09T03:34:50.820Z,73
2019-05-09T03:39:58.328Z,72
2019-05-09T03:49:56.084Z,73
2019-05-09T03:55:01.113Z,73
2019-05-09T04:00:07.926Z,72
2019-05-09T04:05:18.319Z,72
2019-05-09T04:10:28.418Z,71
2019-05-09T04:15:31.072Z,71
2019-05-09T04:20:37.996Z,71
2019-05-09T04:25:41.059Z,70
2019-05-09T04:30:48.047Z,70
2019-05-09T04:36:08.565Z,69
2019-05-09T04:41:25.373Z,69
2019-05-09T04:46:31.049Z,69
2019-05-09T04:51:41.115Z,69
2019-05-09T04:56:47.797Z,68
2019-05-09T05:01:51.102Z,68
2019-05-09T05:06:58.761Z,68
2019-05-09T05:12:01.059Z,68
2019-05-09T05:17:11.829Z,67
2019-05-09T05:22:21.089Z,67
2019-05-09T05:27:28.130Z,66
2019-05-09T05:32:31.057Z,66
2019-05-09T05:37:38.916Z,65
2019-05-09T05:42:41.039Z,65
2019-05-09T05:47:51.302Z,66
2019-05-09T05:53:01.157Z,65
2019-05-09T05:58:08.806Z,64
2019-05-09T06:03:11.039Z,65
2019-05-09T06:08:17.788Z,65
2019-05-09T06:13:21.034Z,66
2019-05-09T06:18:31.030Z,65
2019-05-09T06:23:41.040Z,64
2019-05-09T06:28:48.364Z,64
2019-05-09T06:33:53.845Z,60
2019-05-09T06:38:59.083Z,60
2019-05-09T06:45:11.251Z,59
2019-05-09T06:50:18.777Z,59
2019-05-09T06:54:21.046Z,60
2019-05-09T06:59:28.526Z,60
2019-05-09T07:04:31.055Z,59
2019-05-09T07:09:38.228Z,60
2019-05-09T07:19:38.712Z,60
2019-05-09T07:24:41.101Z,60
2019-05-09T07:29:48.372Z,60
2019-05-09T07:34:58.186Z,59
2019-05-09T07:40:08.717Z,58
2019-05-09T07:45:11.333Z,57
2019-05-09T07:50:19.250Z,58
2019-05-09T07:55:21.137Z,58
2019-05-09T08:00:27.937Z,56
2019-05-09T08:05:31.150Z,54
2019-05-09T08:10:38.713Z,53
2019-05-09T08:20:40.879Z,54
2019-05-09T08:25:41.457Z,52
2019-05-09T08:30:48.711Z,52
2019-05-09T08:35:58.734Z,55
2019-05-09T08:41:09.573Z,56
2019-05-09T08:46:11.369Z,54
2019-05-09T08:51:18.382Z,53
2019-05-09T08:56:21.346Z,52
2019-05-09T09:02:41.608Z,51
2019-05-09T09:06:38.243Z,49
2019-05-09T09:11:48.104Z,47
2019-05-09T09:16:51.313Z,46
2019-05-09T09:22:00.759Z,44
2019-05-09T09:27:01.328Z,44
2019-05-09T09:32:08.682Z,46
2019-05-09T09:37:18.760Z,45
2019-05-09T09:42:28.527Z,45
2019-05-09T09:47:31.313Z,45
2019-05-09T09:52:38.807Z,46
2019-05-09T09:57:41.287Z,47
2019-05-09T10:07:41.515Z,46
2019-05-09T10:12:49.669Z,46
2019-05-09T10:17:51.513Z,44
2019-05-09T10:24:04.797Z,44
2019-05-09T10:28:11.573Z,44
2019-05-09T10:33:17.814Z,42
2019-05-09T10:38:21.501Z,41
2019-05-09T10:44:38.757Z,40
2019-05-09T10:48:31.464Z,40
2019-05-09T10:53:41.567Z,42
2019-05-09T10:58:51.504Z,46
2019-05-09T11:03:59.372Z,50
2019-05-09T11:09:01.493Z,54
2019-05-09T11:14:08.950Z,56
2019-05-09T11:19:11.452Z,55
2019-05-09T11:24:36.936Z,52
2019-05-09T11:25:38.925Z,52
2019-05-09T11:29:31.628Z,47
2019-05-09T11:34:37.851Z,45
2019-05-09T11:39:42.577Z,43
2019-05-09T11:44:46.477Z,42
2019-05-09T11:49:51.593Z,41
2019-05-09T11:55:01.495Z,43
2019-05-09T12:00:11.443Z,42
2019-05-09T12:05:19.615Z,39
2019-05-09T12:10:21.444Z,38
2019-05-09T12:15:29.282Z,40
2019-05-09T12:20:31.496Z,40
2019-05-09T12:25:41.645Z,41
2019-05-09T12:30:51.437Z,41
2019-05-09T12:35:59.521Z,42
2019-05-09T12:41:01.458Z,42
2019-05-09T12:46:08.918Z,42
2019-05-09T12:51:11.492Z,44
2019-05-09T12:56:21.459Z,45
2019-05-09T13:01:33.043Z,43
2019-05-09T13:06:38.370Z,41
2019-05-09T13:11:41.392Z,41
2019-05-09T13:16:53.793Z,40
2019-05-09T13:21:51.416Z,41
2019-05-09T13:26:56.446Z,42
2019-05-09T13:36:59.301Z,40
2019-05-09T13:42:01.596Z,38
2019-05-09T13:47:10.202Z,39
2019-05-09T13:52:18.204Z,40
2019-05-09T13:57:28.295Z,42
2019-05-09T14:02:31.586Z,43
2019-05-09T14:07:38.067Z,44
2019-05-09T14:12:41.615Z,44
2019-05-09T14:17:54.080Z,43
2019-05-09T14:22:57.889Z,42
2019-05-09T14:28:08.888Z,38
2019-05-09T14:33:11.571Z,38
2019-05-09T14:38:18.741Z,37
2019-05-09T14:43:21.520Z,37
2019-05-09T14:48:28.953Z,37
2019-05-09T14:53:31.555Z,36
2019-05-09T14:58:39.015Z,37
2019-05-09T15:03:41.637Z,37
2019-05-09T15:08:48.500Z,37
2019-05-09T15:13:51.571Z,37
2019-05-09T15:18:58.663Z,37
2019-05-09T15:24:01.582Z,38
2019-05-09T15:29:08.447Z,39
2019-05-09T15:34:18.825Z,39
2019-05-09T15:39:28.089Z,39
2019-05-09T15:44:31.532Z,39
2019-05-09T15:49:38.753Z,36
2019-05-09T15:54:41.527Z,36
2019-05-09T15:59:48.277Z,36
2019-05-09T16:04:58.658Z,37
2019-05-09T16:10:08.794Z,36
2019-05-09T16:15:11.477Z,36
2019-05-09T16:21:20.912Z,36
2019-05-09T16:25:21.551Z,36
2019-05-09T16:30:27.727Z,35
2019-05-09T16:35:38.453Z,34
2019-05-09T16:40:48.193Z,35
2019-05-09T16:45:51.514Z,35
2019-05-09T16:51:04.588Z,35
2019-05-09T16:56:01.527Z,36
2019-05-09T17:06:01.745Z,35
2019-05-09T17:11:07.956Z,35
2019-05-09T17:16:12.060Z,35
2019-05-09T17:21:24.665Z,35
2019-05-09T17:26:31.651Z,35
2019-05-09T17:31:38.627Z,36
2019-05-09T17:36:41.647Z,42
2019-05-09T17:41:46.728Z,48
2019-05-09T17:46:51.669Z,49
2019-05-09T17:52:01.751Z,49
2019-05-09T18:02:08.993Z,52
2019-05-09T18:07:11.902Z,53
2019-05-09T18:12:19.165Z,53
2019-05-09T18:17:27.837Z,53
2019-05-09T18:22:36.868Z,53
2019-05-09T18:27:41.883Z,54
2019-05-09T18:37:42.191Z,54
2019-05-09T18:42:47.879Z,54
2019-05-09T18:47:52.208Z,55
2019-05-09T18:53:02.161Z,55
2019-05-09T18:58:12.208Z,55
2019-05-09T19:03:17.183Z,55
2019-05-09T19:13:17.720Z,56
2019-05-09T19:18:22.335Z,56
2019-05-09T19:28:24.592Z,57
2019-05-09T19:38:22.715Z,58
2019-05-09T19:43:27.721Z,58
2019-05-09T19:48:32.776Z,58
2019-05-09T19:53:42.725Z,58
2019-05-09T19:58:52.725Z,59
2019-05-09T20:03:57.659Z,59
2019-05-09T20:09:02.756Z,60
2019-05-09T20:14:07.767Z,60
2019-05-09T20:19:12.723Z,61
2019-05-09T20:24:17.697Z,61
2019-05-09T20:29:22.725Z,61
2019-05-09T20:34:27.719Z,62
2019-05-09T20:44:27.775Z,63
2019-05-09T20:49:32.799Z,63
2019-05-09T20:54:37.766Z,63
2019-05-09T20:59:47.830Z,63
2019-05-09T21:04:57.827Z,63
2019-05-09T21:14:58.055Z,62
2019-05-09T21:20:03.372Z,62
2019-05-09T21:25:08.178Z,62
2019-05-09T21:30:18.080Z,62
2019-05-09T21:35:28.056Z,63
2019-05-09T21:40:33.107Z,64
2019-05-09T21:45:38.286Z,64
2019-05-09T21:50:43.054Z,64
2019-05-09T21:55:48.055Z,64
2019-05-09T22:00:58.077Z,64
2019-05-09T22:06:08.275Z,64
2019-05-09T22:11:13.098Z,64
2019-05-09T22:16:18.107Z,64
2019-05-09T22:21:22.999Z,64
2019-05-09T22:26:28.026Z,64
2019-05-09T22:31:33.112Z,65
2019-05-09T22:36:43.112Z,64
2019-05-09T22:41:53.014Z,65
2019-05-09T22:46:58.087Z,66
2019-05-09T22:52:03.156Z,67
2019-05-09T22:57:08.039Z,67
2019-05-09T23:02:13.056Z,67
2019-05-09T23:07:23.085Z,67
2019-05-09T23:12:33.071Z,67
2019-05-09T23:17:38.009Z,67
2019-05-09T23:22:43.034Z,67
2019-05-09T23:27:48.206Z,67
2019-05-09T23:32:53.039Z,66
2019-05-09T23:38:02.961Z,67
2019-05-09T23:43:13.087Z,67
2019-05-09T23:48:18.061Z,68
2019-05-09T23:53:23.002Z,68
2019-05-09T23:58:27.989Z,66
